Terminal Aerodrome Forecast
Issued by NWS Wilmington, OH

Current Version | Previous Version | Graphics & Text | Print | Product List | Glossary On
Versions: 1 2 3 4 5 6 7 8 9 10 11 12 13 14 15 16 17 18 19 20 21 22 23 24 25 26 27
309
FTUS41 KILN 232048 AAA
TAFCVG
TAF AMD
KCVG 232048Z 2321/2424 VRB03KT P6SM SCT045
     FM240100 00000KT P6SM SCT250
      TEMPO 2408/2412 5SM BR
     FM241400 20005KT P6SM BKN250
     FM241800 22007KT P6SM SCT120 BKN250=

USA.gov is the U.S. government's official web portal to all federal, state and local government web resources and services.